createdAt,value
2023-05-10T00:00:53.337Z,34.62
2023-05-10T00:01:53.368Z,34.63
2023-05-10T00:02:53.474Z,34.64
2023-05-10T00:03:53.507Z,34.66
2023-05-10T00:04:53.420Z,34.66
2023-05-10T00:05:53.432Z,34.66
2023-05-10T00:06:53.435Z,34.67
2023-05-10T00:07:53.496Z,34.68
2023-05-10T00:08:53.549Z,34.71
2023-05-10T00:09:53.548Z,34.69
2023-05-10T00:10:53.597Z,34.71
2023-05-10T00:11:53.635Z,34.73
2023-05-10T00:12:53.675Z,34.70
2023-05-10T00:13:53.677Z,34.72
2023-05-10T00:14:53.658Z,34.75
2023-05-10T00:15:53.708Z,34.75
2023-05-10T00:16:53.746Z,34.75
2023-05-10T00:17:53.822Z,34.74
2023-05-10T00:18:53.776Z,34.77
2023-05-10T00:19:53.787Z,34.79
2023-05-10T00:20:53.825Z,34.81
2023-05-10T00:21:53.855Z,34.82
2023-05-10T00:22:53.851Z,34.80
2023-05-10T00:23:54.177Z,34.82
2023-05-10T00:24:53.959Z,34.84
2023-05-10T00:25:53.943Z,34.83
2023-05-10T00:26:53.993Z,34.84
2023-05-10T00:27:54.034Z,34.85
2023-05-10T00:28:54.057Z,34.85
2023-05-10T00:29:54.089Z,34.86
2023-05-10T00:30:54.123Z,34.89
2023-05-10T00:31:54.181Z,34.88
2023-05-10T00:32:54.250Z,34.91
2023-05-10T00:33:54.195Z,34.89
2023-05-10T00:34:54.179Z,34.93
2023-05-10T00:35:54.242Z,34.91
2023-05-10T00:36:54.263Z,34.93
2023-05-10T00:37:54.319Z,34.95
2023-05-10T00:38:54.644Z,34.97
2023-05-10T00:39:54.351Z,34.99
2023-05-10T00:40:54.447Z,34.94
2023-05-10T00:41:54.437Z,34.97
2023-05-10T00:42:54.467Z,34.99
2023-05-10T00:43:54.491Z,35.00
2023-05-10T00:44:54.520Z,35.02
2023-05-10T00:45:54.597Z,35.04
2023-05-10T00:46:54.587Z,35.04
2023-05-10T00:47:54.679Z,35.06
2023-05-10T00:48:54.715Z,35.05
2023-05-10T00:49:54.719Z,35.07
2023-05-10T00:50:54.698Z,35.08
2023-05-10T00:51:54.779Z,35.08
2023-05-10T00:52:54.805Z,35.11
2023-05-10T00:53:55.189Z,35.10
2023-05-10T00:54:54.881Z,35.13
2023-05-10T00:55:54.876Z,35.12
2023-05-10T00:56:54.970Z,35.14
2023-05-10T00:57:54.977Z,35.15
2023-05-10T00:58:55.170Z,35.14
2023-05-10T00:59:55.027Z,35.16
2023-05-10T01:00:55.066Z,35.15
2023-05-10T01:01:55.122Z,35.16
2023-05-10T01:02:55.196Z,35.18
2023-05-10T01:03:55.678Z,35.20
2023-05-10T01:04:55.263Z,35.21
2023-05-10T01:05:55.217Z,35.22
2023-05-10T01:06:55.282Z,35.21
2023-05-10T01:07:55.348Z,35.23
2023-05-10T01:08:55.715Z,35.23
2023-05-10T01:09:55.390Z,35.24
2023-05-10T01:10:55.403Z,35.26
2023-05-10T01:11:55.462Z,35.27
2023-05-10T01:12:55.558Z,35.24
2023-05-10T01:13:55.708Z,35.26
2023-05-10T01:14:55.574Z,35.30
2023-05-10T01:15:55.596Z,35.29
2023-05-10T01:16:55.628Z,35.29
2023-05-10T01:17:55.720Z,35.33
2023-05-10T01:18:55.691Z,35.33
2023-05-10T01:19:55.750Z,35.33
2023-05-10T01:20:55.787Z,35.34
2023-05-10T01:21:55.790Z,35.34
2023-05-10T01:22:55.825Z,35.34
2023-05-10T01:23:56.191Z,35.35
2023-05-10T01:24:55.902Z,35.38
2023-05-10T01:25:56.004Z,35.38
2023-05-10T01:26:55.983Z,35.38
2023-05-10T01:27:56.029Z,35.39
2023-05-10T01:28:56.217Z,35.38
2023-05-10T01:30:09.170Z,35.38
2023-05-10T01:30:57.112Z,35.42
2023-05-10T01:31:56.066Z,35.42
2023-05-10T01:32:56.107Z,35.41
2023-05-10T01:33:56.269Z,35.42
2023-05-10T01:34:56.073Z,35.43
2023-05-10T01:35:56.068Z,35.45
2023-05-10T01:36:56.036Z,35.45
2023-05-10T01:37:56.084Z,35.46
2023-05-10T01:38:56.185Z,35.48
2023-05-10T01:39:56.008Z,35.45
2023-05-10T01:40:56.019Z,35.47
2023-05-10T01:41:56.008Z,35.49
2023-05-10T01:42:56.002Z,35.51
2023-05-10T01:43:55.963Z,35.51
2023-05-10T01:44:55.987Z,35.52
2023-05-10T01:45:56.037Z,35.52
2023-05-10T01:46:56.256Z,35.54
2023-05-10T01:47:56.138Z,35.54
2023-05-10T01:48:56.126Z,35.55
2023-05-10T01:49:56.179Z,35.54
2023-05-10T01:50:56.203Z,35.57
2023-05-10T01:51:56.275Z,35.55
2023-05-10T01:52:56.290Z,35.57
2023-05-10T01:53:56.309Z,35.57
2023-05-10T01:54:56.339Z,35.57
2023-05-10T01:55:56.404Z,35.59
2023-05-10T01:56:56.449Z,35.61
2023-05-10T01:57:56.440Z,35.56
2023-05-10T01:58:56.521Z,35.62
2023-05-10T01:59:56.497Z,35.63
2023-05-10T02:00:56.604Z,35.63
2023-05-10T02:01:56.656Z,35.65
2023-05-10T02:02:56.687Z,35.63
2023-05-10T02:03:56.751Z,35.62
2023-05-10T02:04:56.695Z,35.66
2023-05-10T02:05:56.752Z,35.67
2023-05-10T02:06:56.796Z,35.67
2023-05-10T02:07:56.848Z,35.65
2023-05-10T02:08:56.939Z,35.67
2023-05-10T02:09:56.920Z,35.65
2023-05-10T02:10:56.940Z,35.68
2023-05-10T02:11:56.975Z,35.71
2023-05-10T02:12:57.074Z,35.72
2023-05-10T02:13:57.236Z,35.71
2023-05-10T02:14:57.081Z,35.71
2023-05-10T02:15:57.099Z,35.74
2023-05-10T02:16:57.236Z,35.72
2023-05-10T02:17:57.229Z,35.75
2023-05-10T02:18:57.725Z,35.75
2023-05-10T02:19:57.277Z,35.74
2023-05-10T02:20:57.318Z,35.77
2023-05-10T02:21:57.335Z,35.77
2023-05-10T02:22:57.356Z,35.78
2023-05-10T02:23:57.402Z,35.79
2023-05-10T02:24:57.468Z,35.78
2023-05-10T02:25:57.504Z,35.82
2023-05-10T02:26:57.532Z,35.80
2023-05-10T02:27:57.589Z,35.80
2023-05-10T02:28:57.653Z,35.84
2023-05-10T02:29:57.726Z,35.82
2023-05-10T02:30:57.682Z,35.85
2023-05-10T02:31:57.737Z,35.83
2023-05-10T02:32:57.841Z,35.86
2023-05-10T02:33:57.800Z,35.87
2023-05-10T02:34:57.823Z,35.86
2023-05-10T02:35:57.881Z,35.87
2023-05-10T02:36:57.906Z,35.88
2023-05-10T02:37:57.916Z,35.89
2023-05-10T02:38:58.007Z,35.89
2023-05-10T02:39:58.043Z,35.91
2023-05-10T02:40:58.042Z,35.90
2023-05-10T02:41:58.103Z,35.92
2023-05-10T02:42:58.098Z,35.94
2023-05-10T02:43:58.178Z,35.91
2023-05-10T02:44:58.223Z,35.94
2023-05-10T02:45:58.252Z,35.95
2023-05-10T02:46:58.296Z,35.95
2023-05-10T02:47:58.339Z,35.97
2023-05-10T02:48:58.715Z,35.96
2023-05-10T02:49:58.355Z,35.95
2023-05-10T02:50:58.400Z,35.97
2023-05-10T02:51:58.453Z,35.97
2023-05-10T02:52:58.477Z,36.01
2023-05-10T02:53:58.589Z,35.99
2023-05-10T02:54:58.567Z,35.99
2023-05-10T02:55:58.595Z,36.02
2023-05-10T02:56:58.587Z,36.05
2023-05-10T02:57:58.646Z,36.03
2023-05-10T02:58:58.687Z,36.04
2023-05-10T02:59:58.737Z,36.04
2023-05-10T03:00:58.744Z,36.05
2023-05-10T03:01:58.808Z,36.05
2023-05-10T03:02:58.852Z,36.07
2023-05-10T03:03:59.235Z,36.07
2023-05-10T03:04:58.952Z,36.09
2023-05-10T03:05:58.925Z,36.06
2023-05-10T03:06:58.957Z,36.07
2023-05-10T03:07:58.979Z,36.11
2023-05-10T03:08:59.018Z,36.11
2023-05-10T03:09:59.032Z,36.11
2023-05-10T03:10:59.086Z,36.10
2023-05-10T03:11:59.127Z,36.11
2023-05-10T03:12:59.170Z,36.14
2023-05-10T03:13:59.177Z,36.12
2023-05-10T03:14:59.252Z,36.15
2023-05-10T03:15:59.318Z,36.15
2023-05-10T03:16:59.318Z,36.14
2023-05-10T03:17:59.346Z,36.15
2023-05-10T03:18:59.379Z,36.16
2023-05-10T03:19:59.396Z,36.18
2023-05-10T03:20:59.390Z,36.16
2023-05-10T03:21:59.463Z,36.17
2023-05-10T03:22:59.470Z,36.17
2023-05-10T03:23:59.523Z,36.17
2023-05-10T03:24:59.542Z,36.21
2023-05-10T03:25:59.571Z,36.19
2023-05-10T03:26:59.614Z,36.21
2023-05-10T03:27:59.650Z,36.21
2023-05-10T03:28:59.649Z,36.23
2023-05-10T03:29:59.672Z,36.24
2023-05-10T03:30:59.765Z,36.22
2023-05-10T03:31:59.706Z,36.24
2023-05-10T03:32:59.758Z,36.25
2023-05-10T03:33:59.801Z,36.24
2023-05-10T03:34:59.852Z,36.26
2023-05-10T03:35:59.856Z,36.28
2023-05-10T03:36:59.891Z,36.28
2023-05-10T03:37:59.975Z,36.28
2023-05-10T03:39:00.276Z,36.28
2023-05-10T03:39:59.969Z,36.30
2023-05-10T03:41:00.034Z,36.29
2023-05-10T03:42:00.073Z,36.30
2023-05-10T03:43:00.100Z,36.34
2023-05-10T03:44:00.187Z,36.32
2023-05-10T03:45:00.159Z,36.33
2023-05-10T03:46:00.177Z,36.33
2023-05-10T03:47:00.359Z,36.34
2023-05-10T03:48:00.345Z,36.34
2023-05-10T03:49:00.307Z,36.35
2023-05-10T03:50:00.477Z,36.36
2023-05-10T03:51:00.385Z,36.36
2023-05-10T03:52:00.420Z,36.36
2023-05-10T03:53:00.474Z,36.37
2023-05-10T03:54:00.497Z,36.37
2023-05-10T03:55:00.548Z,36.39
2023-05-10T03:56:00.568Z,36.38
2023-05-10T03:57:00.578Z,36.39
2023-05-10T03:58:00.613Z,36.39
2023-05-10T03:59:00.652Z,36.40
2023-05-10T04:00:00.695Z,36.42
2023-05-10T04:01:00.704Z,36.41
2023-05-10T04:02:00.785Z,36.42
2023-05-10T04:03:00.859Z,36.44
2023-05-10T04:04:00.933Z,36.44
2023-05-10T04:05:00.859Z,36.43
2023-05-10T04:06:00.978Z,36.45
2023-05-10T04:07:00.967Z,36.46
2023-05-10T04:08:01.012Z,36.47
2023-05-10T04:09:01.236Z,36.47
2023-05-10T04:10:01.090Z,36.47
2023-05-10T04:11:01.116Z,36.47
2023-05-10T04:12:01.157Z,36.47
2023-05-10T04:13:01.227Z,36.46
2023-05-10T04:14:01.291Z,36.50
2023-05-10T04:15:01.265Z,36.50
2023-05-10T04:16:01.297Z,36.50
2023-05-10T04:17:02.089Z,36.50
2023-05-10T04:18:01.484Z,36.51
2023-05-10T04:19:01.441Z,36.50
2023-05-10T04:20:01.484Z,36.54
2023-05-10T04:21:01.545Z,36.54
2023-05-10T04:22:01.571Z,36.54
2023-05-10T04:23:01.599Z,36.55
2023-05-10T04:24:01.653Z,36.53
2023-05-10T04:25:01.716Z,36.53
2023-05-10T04:26:01.723Z,36.56
2023-05-10T04:27:01.762Z,36.57
2023-05-10T04:28:01.803Z,36.56
2023-05-10T04:29:01.848Z,36.57
2023-05-10T04:30:01.857Z,36.59
2023-05-10T04:31:01.970Z,36.59
2023-05-10T04:32:01.932Z,36.60
2023-05-10T04:33:02.002Z,36.56
2023-05-10T04:34:02.036Z,36.59
2023-05-10T04:35:02.044Z,36.59
2023-05-10T04:36:02.107Z,36.61
2023-05-10T04:37:02.162Z,36.62
2023-05-10T04:38:02.188Z,36.63
2023-05-10T04:39:02.223Z,36.64
2023-05-10T04:40:02.257Z,36.64
2023-05-10T04:41:02.294Z,36.63
2023-05-10T04:42:02.358Z,36.66
2023-05-10T04:43:02.388Z,36.66
2023-05-10T04:44:02.438Z,36.67
2023-05-10T04:45:02.518Z,36.67
2023-05-10T04:46:02.530Z,36.66
2023-05-10T04:47:02.539Z,36.67
2023-05-10T04:48:02.585Z,36.69
2023-05-10T04:49:02.771Z,36.69
2023-05-10T04:50:02.658Z,36.70
2023-05-10T04:51:02.688Z,36.68
2023-05-10T04:52:02.737Z,36.70
2023-05-10T04:53:02.801Z,36.84
2023-05-10T04:54:06.633Z,36.92
2023-05-10T04:55:02.802Z,36.96
2023-05-10T04:56:02.824Z,37.14
2023-05-10T04:57:02.795Z,37.18
2023-05-10T04:58:02.794Z,37.34
2023-05-10T04:59:02.815Z,37.56
2023-05-10T05:00:02.786Z,37.45
2023-05-10T05:01:02.888Z,37.49
2023-05-10T05:02:02.897Z,38.03
2023-05-10T05:03:02.822Z,37.95
2023-05-10T05:04:02.737Z,38.31
2023-05-10T05:05:02.755Z,38.54
2023-05-10T05:06:02.774Z,38.47
2023-05-10T05:07:02.742Z,38.67
2023-05-10T05:08:02.732Z,38.47
2023-05-10T05:09:02.773Z,38.69
2023-05-10T05:10:02.714Z,39.34
2023-05-10T05:11:02.761Z,39.79
2023-05-10T05:12:02.697Z,41.34
2023-05-10T05:13:02.721Z,40.88
2023-05-10T05:14:02.775Z,40.92
2023-05-10T05:15:02.716Z,40.73
2023-05-10T05:16:02.693Z,40.74
2023-05-10T05:17:02.699Z,40.47
2023-05-10T05:18:02.792Z,40.87
2023-05-10T05:19:02.802Z,40.89
2023-05-10T05:20:02.659Z,41.30
2023-05-10T05:21:02.662Z,42.24
2023-05-10T05:22:02.624Z,42.93
2023-05-10T05:23:02.601Z,42.18
2023-05-10T05:24:02.643Z,42.35
2023-05-10T05:25:02.681Z,43.07
2023-05-10T05:26:02.750Z,42.65
2023-05-10T05:27:02.793Z,42.93
2023-05-10T05:28:02.815Z,42.76
2023-05-10T05:29:02.863Z,42.68
2023-05-10T05:30:02.929Z,42.61
2023-05-10T05:31:02.994Z,42.94
2023-05-10T05:32:03.193Z,43.02
2023-05-10T05:33:03.141Z,42.84
2023-05-10T05:34:03.168Z,42.66
2023-05-10T05:35:03.321Z,42.82
2023-05-10T05:36:03.262Z,42.72
2023-05-10T05:37:03.305Z,42.68
2023-05-10T05:38:03.353Z,42.66
2023-05-10T05:39:03.398Z,42.60
2023-05-10T05:40:03.465Z,42.47
2023-05-10T05:41:03.728Z,42.34
2023-05-10T05:42:03.751Z,42.50
2023-05-10T05:43:03.858Z,42.28
2023-05-10T05:44:04.033Z,42.39
2023-05-10T05:45:04.485Z,42.29
2023-05-10T05:46:03.834Z,42.20
2023-05-10T05:47:03.854Z,42.14
2023-05-10T05:48:04.010Z,42.17
2023-05-10T05:49:03.950Z,42.25
2023-05-10T05:50:04.276Z,42.06
2023-05-10T05:51:05.856Z,42.01
2023-05-10T05:52:04.113Z,42.00
2023-05-10T05:53:04.071Z,42.00
2023-05-10T05:54:04.092Z,42.02
2023-05-10T05:55:04.332Z,41.78
2023-05-10T05:56:04.033Z,41.70
2023-05-10T05:57:04.000Z,41.36
2023-05-10T05:58:04.070Z,41.34
2023-05-10T05:59:03.989Z,41.20
2023-05-10T06:00:04.021Z,41.12
2023-05-10T06:01:04.011Z,41.12
2023-05-10T06:02:04.021Z,41.14
2023-05-10T06:03:04.037Z,41.21
2023-05-10T06:04:04.112Z,41.24
2023-05-10T06:05:03.956Z,41.47
2023-05-10T06:06:04.001Z,41.63
2023-05-10T06:07:03.954Z,41.39
2023-05-10T06:08:03.980Z,41.35
2023-05-10T06:09:03.914Z,41.32
2023-05-10T06:10:03.973Z,41.47
2023-05-10T06:11:03.933Z,41.61
2023-05-10T06:12:03.914Z,41.47
2023-05-10T06:13:03.980Z,41.44
2023-05-10T06:14:03.881Z,41.45
2023-05-10T06:15:03.898Z,41.77
2023-05-10T06:16:03.866Z,41.66
2023-05-10T06:17:03.895Z,41.56
2023-05-10T06:18:03.965Z,41.57
2023-05-10T06:19:03.888Z,41.59
2023-05-10T06:20:03.900Z,41.62
2023-05-10T06:21:03.893Z,41.99
2023-05-10T06:22:03.928Z,42.06
2023-05-10T06:23:03.819Z,41.89
2023-05-10T06:24:03.918Z,41.76
2023-05-10T06:25:03.805Z,41.72
2023-05-10T06:26:03.844Z,41.88
2023-05-10T06:27:03.796Z,41.75
2023-05-10T06:28:03.772Z,41.81
2023-05-10T06:29:03.805Z,41.92
2023-05-10T06:30:12.339Z,41.80
2023-05-10T06:31:04.828Z,41.86
2023-05-10T06:32:03.765Z,41.81
2023-05-10T06:33:03.910Z,41.88
2023-05-10T06:34:03.748Z,42.09
2023-05-10T06:35:03.815Z,42.00
2023-05-10T06:36:03.751Z,42.34
2023-05-10T06:37:03.764Z,42.22
2023-05-10T06:38:03.724Z,42.11
2023-05-10T06:39:03.717Z,42.14
2023-05-10T06:40:03.731Z,42.19
2023-05-10T06:41:03.685Z,42.15
2023-05-10T06:42:03.702Z,42.18
2023-05-10T06:43:03.711Z,42.15
2023-05-10T06:44:03.662Z,42.30
2023-05-10T06:45:03.675Z,42.38
2023-05-10T06:46:03.689Z,42.61
2023-05-10T06:47:03.654Z,43.03
2023-05-10T06:48:03.800Z,43.05
2023-05-10T06:49:03.695Z,43.36
2023-05-10T06:50:03.699Z,43.48
2023-05-10T06:51:03.720Z,43.08
2023-05-10T06:52:03.716Z,43.14
2023-05-10T06:53:03.724Z,42.78
2023-05-10T06:54:03.778Z,42.57
2023-05-10T06:55:03.887Z,42.59
2023-05-10T06:56:04.542Z,42.47
2023-05-10T06:57:04.740Z,42.47
2023-05-10T06:58:03.778Z,42.51
2023-05-10T06:59:03.793Z,42.47
2023-05-10T07:00:03.862Z,42.45
2023-05-10T07:01:03.808Z,42.68
2023-05-10T07:02:03.825Z,42.68
2023-05-10T07:03:03.757Z,42.69
2023-05-10T07:04:03.742Z,42.58
2023-05-10T07:05:03.818Z,42.98
2023-05-10T07:06:03.777Z,42.81
2023-05-10T07:07:03.688Z,42.71
2023-05-10T07:08:03.696Z,42.64
2023-05-10T07:09:03.676Z,42.93
2023-05-10T07:10:03.703Z,42.79
2023-05-10T07:11:03.673Z,42.94
2023-05-10T07:12:03.661Z,42.94
2023-05-10T07:13:03.744Z,43.38
2023-05-10T07:14:03.663Z,43.14
2023-05-10T07:15:03.668Z,43.07
2023-05-10T07:16:03.635Z,43.42
2023-05-10T07:17:03.707Z,43.11
2023-05-10T07:18:03.803Z,42.88
2023-05-10T07:19:03.671Z,42.95
2023-05-10T07:20:03.828Z,42.80
2023-05-10T07:21:03.610Z,42.77
2023-05-10T07:22:03.610Z,42.82
2023-05-10T07:23:03.620Z,43.12
2023-05-10T07:24:03.578Z,42.96
2023-05-10T07:25:03.851Z,42.82
2023-05-10T07:26:03.570Z,43.09
2023-05-10T07:27:03.543Z,42.96
2023-05-10T07:28:03.537Z,43.21
2023-05-10T07:29:03.536Z,43.28
2023-05-10T07:30:03.574Z,42.76
2023-05-10T07:31:03.610Z,42.63
2023-05-10T07:32:03.555Z,42.65
2023-05-10T07:33:03.580Z,42.79
2023-05-10T07:34:03.544Z,42.65
2023-05-10T07:35:03.528Z,42.61
2023-05-10T07:36:03.560Z,42.52
2023-05-10T07:37:03.516Z,42.51
2023-05-10T07:38:03.494Z,42.50
2023-05-10T07:39:03.488Z,42.45
2023-05-10T07:40:03.501Z,42.48
2023-05-10T07:41:03.491Z,42.47
2023-05-10T07:42:03.499Z,42.46
2023-05-10T07:43:03.465Z,42.44
2023-05-10T07:44:03.480Z,42.69
2023-05-10T07:45:03.979Z,42.47
2023-05-10T07:46:03.440Z,42.47
2023-05-10T07:47:03.434Z,42.43
2023-05-10T07:48:03.469Z,42.54
2023-05-10T07:49:03.427Z,42.62
2023-05-10T07:50:03.881Z,42.52
2023-05-10T07:51:04.359Z,42.47
2023-05-10T07:52:03.424Z,42.40
2023-05-10T07:53:03.364Z,42.41
2023-05-10T07:54:03.401Z,42.69
2023-05-10T07:55:03.381Z,42.55
2023-05-10T07:56:03.364Z,42.48
2023-05-10T07:57:03.369Z,42.58
2023-05-10T07:58:03.334Z,42.59
2023-05-10T07:59:03.408Z,42.58
2023-05-10T08:00:03.340Z,42.54
2023-05-10T08:01:03.320Z,42.53
2023-05-10T08:02:03.332Z,42.50
2023-05-10T08:03:03.467Z,42.59
2023-05-10T08:04:03.560Z,42.59
2023-05-10T08:05:03.315Z,42.71
2023-05-10T08:06:03.309Z,42.62
2023-05-10T08:07:03.287Z,42.57
2023-05-10T08:08:03.265Z,42.75
2023-05-10T08:09:03.253Z,42.62
2023-05-10T08:10:03.345Z,42.67
2023-05-10T08:11:03.259Z,42.71
2023-05-10T08:12:03.265Z,42.70
2023-05-10T08:13:03.225Z,42.84
2023-05-10T08:14:03.249Z,42.75
2023-05-10T08:15:03.210Z,42.70
2023-05-10T08:16:03.276Z,42.81
2023-05-10T08:17:03.230Z,42.72
2023-05-10T08:18:03.266Z,42.75
2023-05-10T08:19:03.309Z,42.81
2023-05-10T08:20:03.233Z,42.88
2023-05-10T08:21:03.191Z,42.80
2023-05-10T08:22:03.168Z,43.02
2023-05-10T08:23:03.184Z,42.90
2023-05-10T08:24:03.145Z,42.99
2023-05-10T08:25:03.169Z,42.97
2023-05-10T08:26:03.126Z,42.97
2023-05-10T08:27:03.149Z,43.02
2023-05-10T08:28:03.121Z,43.18
2023-05-10T08:29:03.162Z,43.13
2023-05-10T08:30:03.402Z,43.02
2023-05-10T08:31:03.120Z,43.02
2023-05-10T08:32:03.092Z,43.05
2023-05-10T08:33:03.155Z,43.13
2023-05-10T08:34:03.079Z,43.15
2023-05-10T08:35:03.364Z,43.23
2023-05-10T08:36:03.045Z,43.09
2023-05-10T08:37:03.058Z,43.06
2023-05-10T08:38:03.027Z,43.30
2023-05-10T08:39:03.031Z,43.12
2023-05-10T08:40:03.370Z,43.15
2023-05-10T08:41:03.077Z,43.29
2023-05-10T08:42:03.176Z,43.59
2023-05-10T08:43:03.215Z,43.33
2023-05-10T08:44:03.253Z,43.36
2023-05-10T08:45:03.319Z,43.24
2023-05-10T08:46:03.769Z,43.13
2023-05-10T08:47:03.497Z,43.05
2023-05-10T08:48:03.536Z,42.99
2023-05-10T08:49:03.485Z,42.92
2023-05-10T08:50:03.896Z,42.88
2023-05-10T08:51:03.455Z,42.82
2023-05-10T08:52:03.480Z,42.78
2023-05-10T08:53:03.487Z,42.74
2023-05-10T08:54:03.515Z,42.68
2023-05-10T08:55:03.880Z,42.63
2023-05-10T08:56:03.475Z,42.58
2023-05-10T08:57:03.470Z,42.50
2023-05-10T08:58:03.447Z,42.43
2023-05-10T08:59:03.443Z,42.27
2023-05-10T09:00:03.873Z,42.24
2023-05-10T09:01:03.494Z,42.24
2023-05-10T09:02:04.431Z,42.20
2023-05-10T09:03:03.481Z,42.09
2023-05-10T09:04:03.571Z,42.08
2023-05-10T09:05:04.038Z,42.02
2023-05-10T09:06:03.446Z,41.91
2023-05-10T09:07:03.407Z,41.87
2023-05-10T09:08:03.422Z,41.74
2023-05-10T09:09:03.393Z,41.65
2023-05-10T09:10:03.873Z,41.54
2023-05-10T09:11:03.382Z,41.46
2023-05-10T09:12:03.390Z,41.30
2023-05-10T09:13:03.339Z,41.34
2023-05-10T09:14:03.348Z,41.19
2023-05-10T09:15:03.402Z,41.25
2023-05-10T09:16:10.202Z,41.09
2023-05-10T09:17:04.365Z,41.11
2023-05-10T09:18:03.440Z,41.10
2023-05-10T09:19:03.378Z,41.10
2023-05-10T09:20:03.343Z,41.08
2023-05-10T09:21:03.343Z,40.90
2023-05-10T09:22:03.319Z,40.79
2023-05-10T09:23:03.289Z,40.90
2023-05-10T09:24:03.254Z,40.98
2023-05-10T09:25:03.278Z,40.80
2023-05-10T09:26:03.338Z,40.78
2023-05-10T09:27:03.296Z,40.63
2023-05-10T09:28:03.326Z,40.72
2023-05-10T09:29:03.225Z,40.73
2023-05-10T09:30:03.268Z,40.66
2023-05-10T09:31:03.273Z,40.64
2023-05-10T09:32:03.234Z,40.60
2023-05-10T09:33:03.248Z,40.63
2023-05-10T09:34:03.229Z,40.61
2023-05-10T09:35:03.229Z,40.60
2023-05-10T09:36:03.395Z,40.64
2023-05-10T09:37:03.342Z,40.57
2023-05-10T09:38:03.353Z,40.59
2023-05-10T09:39:03.397Z,40.60
2023-05-10T09:40:03.432Z,40.58
2023-05-10T09:41:03.890Z,40.54
2023-05-10T09:42:03.487Z,40.60
2023-05-10T09:43:03.538Z,40.63
2023-05-10T09:44:03.576Z,40.58
2023-05-10T09:45:03.598Z,40.61
2023-05-10T09:46:03.947Z,40.63
2023-05-10T09:47:03.657Z,40.67
2023-05-10T09:48:03.701Z,40.66
2023-05-10T09:49:03.685Z,40.71
2023-05-10T09:50:03.754Z,40.73
2023-05-10T09:51:03.899Z,40.71
2023-05-10T09:52:03.846Z,40.65
2023-05-10T09:53:03.872Z,40.67
2023-05-10T09:54:03.884Z,40.71
2023-05-10T09:55:03.888Z,40.73
2023-05-10T09:56:04.402Z,40.75
2023-05-10T09:57:04.006Z,40.75
2023-05-10T09:58:03.992Z,40.75
2023-05-10T09:59:04.043Z,40.75
2023-05-10T10:00:04.049Z,40.74
2023-05-10T10:01:04.463Z,40.77
2023-05-10T10:02:04.958Z,40.77
2023-05-10T10:03:04.174Z,40.79
2023-05-10T10:04:04.177Z,40.83
2023-05-10T10:05:04.401Z,40.86
2023-05-10T10:06:04.251Z,40.87
2023-05-10T10:07:04.317Z,40.86
2023-05-10T10:08:04.317Z,40.86
2023-05-10T10:09:04.349Z,40.85
2023-05-10T10:10:04.382Z,40.86
2023-05-10T10:11:04.938Z,40.82
2023-05-10T10:12:04.415Z,40.78
2023-05-10T10:13:04.461Z,40.77
2023-05-10T10:14:04.506Z,40.70
2023-05-10T10:15:04.560Z,40.65
2023-05-10T10:16:04.645Z,40.59
2023-05-10T10:17:07.492Z,40.56
2023-05-10T10:18:04.702Z,40.57
2023-05-10T10:19:04.644Z,40.53
2023-05-10T10:20:04.596Z,40.50
2023-05-10T10:21:04.579Z,40.43
2023-05-10T10:22:04.612Z,40.36
2023-05-10T10:23:04.629Z,40.37
2023-05-10T10:24:04.575Z,40.36
2023-05-10T10:25:04.556Z,40.34
2023-05-10T10:26:04.622Z,40.34
2023-05-10T10:27:04.599Z,40.31
2023-05-10T10:28:04.580Z,40.30
2023-05-10T10:29:04.564Z,40.35
2023-05-10T10:30:04.536Z,40.30
2023-05-10T10:31:04.598Z,40.36
2023-05-10T10:32:04.535Z,40.30
2023-05-10T10:33:13.224Z,40.33
2023-05-10T10:34:05.518Z,40.36
2023-05-10T10:35:04.515Z,40.35
2023-05-10T10:36:04.475Z,40.35
2023-05-10T10:37:04.519Z,40.34
2023-05-10T10:38:04.494Z,40.34
2023-05-10T10:39:04.520Z,40.42
2023-05-10T10:40:04.488Z,40.66
2023-05-10T10:41:04.972Z,41.20
2023-05-10T10:42:04.505Z,41.68
2023-05-10T10:43:04.473Z,42.89
2023-05-10T10:44:04.468Z,42.65
2023-05-10T10:45:04.508Z,42.63
2023-05-10T10:46:04.552Z,42.61
2023-05-10T10:47:05.477Z,42.24
2023-05-10T10:48:04.696Z,41.94
2023-05-10T10:49:04.702Z,41.88
2023-05-10T10:50:04.716Z,42.16
2023-05-10T10:51:04.909Z,42.48
2023-05-10T10:52:04.743Z,42.55
2023-05-10T10:53:04.849Z,42.51
2023-05-10T10:54:04.842Z,42.67
2023-05-10T10:55:04.917Z,42.48
2023-05-10T10:56:04.903Z,42.47
2023-05-10T10:57:04.997Z,42.44
2023-05-10T10:58:04.972Z,42.36
2023-05-10T10:59:05.003Z,42.41
2023-05-10T11:00:05.031Z,42.50
2023-05-10T11:01:05.435Z,42.45
2023-05-10T11:02:05.120Z,42.21
2023-05-10T11:03:05.217Z,42.31
2023-05-10T11:04:05.272Z,42.28
2023-05-10T11:05:05.205Z,42.37
2023-05-10T11:06:05.411Z,42.19
2023-05-10T11:07:05.279Z,42.10
2023-05-10T11:08:05.322Z,42.18
2023-05-10T11:09:05.331Z,42.10
2023-05-10T11:10:05.396Z,42.20
2023-05-10T11:11:05.489Z,42.26
2023-05-10T11:12:05.460Z,42.21
2023-05-10T11:13:05.504Z,42.42
2023-05-10T11:14:05.532Z,42.14
2023-05-10T11:15:05.539Z,42.19
2023-05-10T11:16:05.938Z,42.41
2023-05-10T11:17:05.695Z,42.40
2023-05-10T11:18:05.712Z,42.40
2023-05-10T11:19:05.710Z,42.37
2023-05-10T11:20:05.732Z,42.26
2023-05-10T11:21:05.935Z,42.19
2023-05-10T11:22:05.763Z,42.20
2023-05-10T11:23:05.825Z,42.17
2023-05-10T11:24:05.846Z,42.21
2023-05-10T11:25:05.904Z,42.11
2023-05-10T11:26:05.963Z,42.15
2023-05-10T11:27:05.967Z,42.17
2023-05-10T11:28:05.982Z,42.10
2023-05-10T11:29:06.111Z,42.20
2023-05-10T11:30:06.044Z,42.34
2023-05-10T11:31:06.501Z,42.52
2023-05-10T11:32:06.119Z,42.54
2023-05-10T11:33:06.163Z,42.44
2023-05-10T11:34:06.179Z,42.41
2023-05-10T11:35:06.171Z,42.42
2023-05-10T11:36:06.454Z,42.41
2023-05-10T11:37:06.222Z,42.42
2023-05-10T11:38:06.267Z,42.80
2023-05-10T11:39:06.366Z,42.57
2023-05-10T11:40:06.318Z,42.55
2023-05-10T11:41:06.427Z,42.55
2023-05-10T11:42:06.429Z,42.48
2023-05-10T11:43:06.419Z,42.32
2023-05-10T11:44:06.467Z,42.30
2023-05-10T11:45:06.480Z,42.17
2023-05-10T11:46:06.556Z,42.10
2023-05-10T11:47:06.504Z,41.99
2023-05-10T11:48:06.662Z,41.91
2023-05-10T11:49:06.597Z,41.84
2023-05-10T11:50:06.678Z,41.78
2023-05-10T11:51:06.965Z,41.72
2023-05-10T11:52:06.721Z,41.66
2023-05-10T11:53:06.791Z,41.66
2023-05-10T11:54:06.814Z,41.53
2023-05-10T11:55:06.856Z,41.49
2023-05-10T11:56:06.941Z,41.42
2023-05-10T11:57:06.911Z,41.38
2023-05-10T11:58:06.965Z,41.27
2023-05-10T11:59:07.038Z,41.32
2023-05-10T12:00:07.038Z,41.28
2023-05-10T12:01:07.157Z,41.16
2023-05-10T12:02:07.203Z,41.10
2023-05-10T12:03:07.277Z,41.12
2023-05-10T12:04:07.333Z,41.12
2023-05-10T12:05:07.322Z,41.03
2023-05-10T12:06:07.373Z,41.02
2023-05-10T12:07:07.428Z,40.97
2023-05-10T12:08:07.474Z,40.88
2023-05-10T12:09:07.525Z,40.86
2023-05-10T12:10:07.582Z,40.88
2023-05-10T12:11:07.664Z,40.90
2023-05-10T12:12:07.730Z,40.89
2023-05-10T12:13:07.756Z,40.81
2023-05-10T12:14:07.791Z,40.85
2023-05-10T12:15:07.863Z,40.91
2023-05-10T12:16:07.987Z,40.83
2023-05-10T12:17:07.978Z,40.86
2023-05-10T12:18:08.102Z,40.92
2023-05-10T12:19:08.217Z,40.89
2023-05-10T12:20:08.188Z,40.93
2023-05-10T12:21:08.472Z,40.96
2023-05-10T12:22:08.297Z,40.94
2023-05-10T12:23:08.372Z,40.93
2023-05-10T12:24:08.380Z,40.92
2023-05-10T12:25:08.437Z,40.95
2023-05-10T12:26:08.958Z,40.97
2023-05-10T12:27:08.596Z,40.99
2023-05-10T12:28:08.647Z,40.98
2023-05-10T12:29:08.694Z,40.97
2023-05-10T12:30:08.790Z,40.98
2023-05-10T12:31:09.030Z,41.00
2023-05-10T12:32:09.048Z,41.01
2023-05-10T12:33:08.981Z,40.99
2023-05-10T12:34:08.959Z,41.02
2023-05-10T12:35:09.019Z,41.03
2023-05-10T12:36:09.144Z,41.00
2023-05-10T12:37:09.185Z,41.02
2023-05-10T12:38:09.246Z,41.01
2023-05-10T12:39:09.288Z,41.02
2023-05-10T12:40:09.389Z,41.04
2023-05-10T12:41:09.577Z,41.02
2023-05-10T12:42:09.461Z,41.04
2023-05-10T12:43:09.541Z,41.01
2023-05-10T12:44:09.604Z,41.05
2023-05-10T12:45:09.671Z,41.07
2023-05-10T12:46:10.067Z,41.08
2023-05-10T12:47:09.775Z,41.05
2023-05-10T12:48:09.867Z,41.05
2023-05-10T12:49:10.137Z,41.07
2023-05-10T12:50:09.917Z,41.11
2023-05-10T12:51:10.506Z,41.11
2023-05-10T12:52:10.041Z,41.09
2023-05-10T12:53:10.122Z,41.12